KEVV

Evansville Regional Airport

Evansville, Indiana, USA
METAR KEVV 160054Z 35010G18KT 5SM BR BKN007 OVC014 08/07 A2999 RMK AO2 CIG 005V010 SLP155 T00780072 $
Observed Flight Rules
Dec-16 @ 00:54 UTC (22 minutes ago) Instrument Flight Rules
Wind Visibility Clouds Conditions
350° at 10 knots
 Gusting to 18 knots
5 miles
  • Broken at 700' AGL
  • Overcast at 1,400' AGL
  • Mist
Temperatures Readings
Current 8°C / 46°F
Dewpoint 7°C / 45°F
Humidity 93%
Altimeter 29.99" Hg
Pressure 1015.5 hPa
Elevation 117
METAR KEVV 160054Z 35010G18KT 5SM BR BKN007 OVC014 08/07 A2999 RMK AO2 CIG 005V010 SLP155 T00780072 $
Observed Flight Rules
Dec-16 @ 00:54 UTC
(22 minutes ago)
IFR
Wind Visibility
350° at 10 knots
 Gusting to 18 knots
5 miles
Clouds
  • Broken at 700' AGL
  • Overcast at 1,400' AGL
Conditions
  • Mist
Temperature Dewpoint
8°C / 46°F 7°C / 45°F
Humidity Altimeter Pressure
93% 29.99" Hg 1015.5 hPa